sensor_id;sensor_type;location;lat;lon;timestamp;P1;durP1;ratioP1;P2;durP2;ratioP2
75744;SDS011;64359;51.366;-0.222;2023-04-10T00:00:31;3.30;;;3.00;;
75744;SDS011;64359;51.366;-0.222;2023-04-10T00:01:36;3.70;;;3.40;;
75744;SDS011;64359;51.366;-0.222;2023-04-10T00:02:41;3.30;;;3.00;;
75744;SDS011;64359;51.366;-0.222;2023-04-10T00:03:46;2.70;;;2.50;;
75744;SDS011;64359;51.366;-0.222;2023-04-10T00:04:50;3.50;;;3.20;;
75744;SDS011;64359;51.366;-0.222;2023-04-10T00:05:54;2.70;;;2.50;;
75744;SDS011;64359;51.366;-0.222;2023-04-10T00:06:59;3.00;;;2.70;;
75744;SDS011;64359;51.366;-0.222;2023-04-10T00:08:03;3.40;;;3.10;;
75744;SDS011;64359;51.366;-0.222;2023-04-10T00:09:08;3.50;;;3.20;;
75744;SDS011;64359;51.366;-0.222;2023-04-10T00:10:13;3.80;;;3.50;;
75744;SDS011;64359;51.366;-0.222;2023-04-10T00:11:17;3.80;;;3.50;;
75744;SDS011;64359;51.366;-0.222;2023-04-10T00:12:22;3.10;;;2.80;;
75744;SDS011;64359;51.366;-0.222;2023-04-10T00:13:26;3.20;;;2.90;;
75744;SDS011;64359;51.366;-0.222;2023-04-10T00:14:31;3.50;;;3.20;;
75744;SDS011;64359;51.366;-0.222;2023-04-10T00:15:35;3.50;;;3.20;;
75744;SDS011;64359;51.366;-0.222;2023-04-10T00:16:39;3.80;;;3.50;;
75744;SDS011;64359;51.366;-0.222;2023-04-10T00:17:44;3.80;;;3.40;;
75744;SDS011;64359;51.366;-0.222;2023-04-10T00:18:50;3.70;;;3.40;;
75744;SDS011;64359;51.366;-0.222;2023-04-10T00:19:55;3.80;;;3.40;;
75744;SDS011;64359;51.366;-0.222;2023-04-10T00:21:00;3.00;;;2.80;;
75744;SDS011;64359;51.366;-0.222;2023-04-10T00:22:05;2.80;;;2.50;;
75744;SDS011;64359;51.366;-0.222;2023-04-10T00:23:10;3.60;;;3.30;;
75744;SDS011;64359;51.366;-0.222;2023-04-10T00:24:14;4.30;;;3.90;;
75744;SDS011;64359;51.366;-0.222;2023-04-10T00:25:19;2.80;;;2.60;;
75744;SDS011;64359;51.366;-0.222;2023-04-10T00:26:24;3.60;;;3.30;;
75744;SDS011;64359;51.366;-0.222;2023-04-10T00:27:28;3.30;;;2.90;;
75744;SDS011;64359;51.366;-0.222;2023-04-10T00:28:33;3.10;;;2.80;;
75744;SDS011;64359;51.366;-0.222;2023-04-10T00:29:38;2.80;;;2.60;;
75744;SDS011;64359;51.366;-0.222;2023-04-10T00:30:42;3.20;;;2.80;;
75744;SDS011;64359;51.366;-0.222;2023-04-10T00:31:47;3.10;;;2.80;;
75744;SDS011;64359;51.366;-0.222;2023-04-10T00:32:51;3.40;;;3.10;;
75744;SDS011;64359;51.366;-0.222;2023-04-10T00:33:55;3.70;;;3.30;;
75744;SDS011;64359;51.366;-0.222;2023-04-10T00:35:00;3.50;;;3.20;;
75744;SDS011;64359;51.366;-0.222;2023-04-10T00:36:05;3.40;;;3.10;;
75744;SDS011;64359;51.366;-0.222;2023-04-10T00:37:09;3.10;;;2.80;;
75744;SDS011;64359;51.366;-0.222;2023-04-10T00:38:14;3.10;;;2.90;;
75744;SDS011;64359;51.366;-0.222;2023-04-10T00:39:18;2.60;;;2.40;;
75744;SDS011;64359;51.366;-0.222;2023-04-10T00:40:22;3.60;;;3.30;;
75744;SDS011;64359;51.366;-0.222;2023-04-10T00:41:27;3.20;;;2.90;;
75744;SDS011;64359;51.366;-0.222;2023-04-10T00:42:32;3.90;;;3.00;;
75744;SDS011;64359;51.366;-0.222;2023-04-10T00:43:36;3.50;;;3.20;;
75744;SDS011;64359;51.366;-0.222;2023-04-10T00:44:40;4.10;;;3.80;;
75744;SDS011;64359;51.366;-0.222;2023-04-10T00:45:46;2.90;;;2.60;;
75744;SDS011;64359;51.366;-0.222;2023-04-10T00:46:50;3.00;;;2.80;;
75744;SDS011;64359;51.366;-0.222;2023-04-10T00:47:55;3.90;;;3.50;;
75744;SDS011;64359;51.366;-0.222;2023-04-10T00:49:00;3.60;;;3.30;;
75744;SDS011;64359;51.366;-0.222;2023-04-10T00:50:05;3.70;;;3.40;;
75744;SDS011;64359;51.366;-0.222;2023-04-10T00:51:10;3.40;;;3.10;;
75744;SDS011;64359;51.366;-0.222;2023-04-10T00:52:15;3.00;;;2.80;;
75744;SDS011;64359;51.366;-0.222;2023-04-10T00:53:19;3.50;;;3.20;;
75744;SDS011;64359;51.366;-0.222;2023-04-10T00:54:24;2.60;;;2.40;;
75744;SDS011;64359;51.366;-0.222;2023-04-10T00:55:29;3.40;;;3.00;;
75744;SDS011;64359;51.366;-0.222;2023-04-10T00:56:34;3.10;;;2.80;;
75744;SDS011;64359;51.366;-0.222;2023-04-10T00:57:38;3.60;;;2.90;;
75744;SDS011;64359;51.366;-0.222;2023-04-10T00:58:46;2.70;;;2.50;;
75744;SDS011;64359;51.366;-0.222;2023-04-10T00:59:50;3.60;;;3.30;;
75744;SDS011;64359;51.366;-0.222;2023-04-10T01:00:55;3.80;;;3.50;;
75744;SDS011;64359;51.366;-0.222;2023-04-10T01:01:59;3.70;;;3.40;;
75744;SDS011;64359;51.366;-0.222;2023-04-10T01:03:04;3.60;;;3.30;;
75744;SDS011;64359;51.366;-0.222;2023-04-10T01:04:08;3.70;;;3.40;;
75744;SDS011;64359;51.366;-0.222;2023-04-10T01:05:14;3.10;;;2.80;;
75744;SDS011;64359;51.366;-0.222;2023-04-10T01:06:21;3.30;;;3.00;;
75744;SDS011;64359;51.366;-0.222;2023-04-10T01:07:46;3.20;;;2.90;;
75744;SDS011;64359;51.366;-0.222;2023-04-10T01:09:02;7.30;;;3.30;;
75744;SDS011;64359;51.366;-0.222;2023-04-10T01:10:12;4.10;;;2.80;;
75744;SDS011;64359;51.366;-0.222;2023-04-10T01:11:22;3.00;;;2.80;;
75744;SDS011;64359;51.366;-0.222;2023-04-10T01:12:37;2.90;;;2.70;;
75744;SDS011;64359;51.366;-0.222;2023-04-10T01:13:54;3.10;;;2.80;;
75744;SDS011;64359;51.366;-0.222;2023-04-10T01:15:05;3.10;;;2.80;;
75744;SDS011;64359;51.366;-0.222;2023-04-10T01:16:14;3.60;;;3.30;;
75744;SDS011;64359;51.366;-0.222;2023-04-10T01:17:25;3.50;;;2.70;;
75744;SDS011;64359;51.366;-0.222;2023-04-10T01:18:36;3.50;;;3.20;;
75744;SDS011;64359;51.366;-0.222;2023-04-10T01:19:56;3.70;;;3.40;;
75744;SDS011;64359;51.366;-0.222;2023-04-10T01:21:05;3.50;;;3.20;;
75744;SDS011;64359;51.366;-0.222;2023-04-10T01:22:12;3.20;;;2.90;;
75744;SDS011;64359;51.366;-0.222;2023-04-10T01:23:26;3.30;;;3.00;;
75744;SDS011;64359;51.366;-0.222;2023-04-10T01:24:54;3.70;;;3.40;;
75744;SDS011;64359;51.366;-0.222;2023-04-10T01:26:09;3.00;;;2.80;;
75744;SDS011;64359;51.366;-0.222;2023-04-10T01:27:22;3.00;;;2.80;;
75744;SDS011;64359;51.366;-0.222;2023-04-10T01:28:50;3.40;;;3.10;;
75744;SDS011;64359;51.366;-0.222;2023-04-10T01:29:57;2.80;;;2.60;;
75744;SDS011;64359;51.366;-0.222;2023-04-10T01:31:06;3.80;;;3.50;;
75744;SDS011;64359;51.366;-0.222;2023-04-10T01:32:16;3.70;;;3.40;;
75744;SDS011;64359;51.366;-0.222;2023-04-10T01:33:24;3.20;;;3.00;;
75744;SDS011;64359;51.366;-0.222;2023-04-10T01:34:34;2.90;;;2.60;;
75744;SDS011;64359;51.366;-0.222;2023-04-10T01:35:42;3.00;;;2.70;;
75744;SDS011;64359;51.366;-0.222;2023-04-10T01:36:50;4.10;;;3.80;;
75744;SDS011;64359;51.366;-0.222;2023-04-10T01:37:58;4.20;;;3.90;;
75744;SDS011;64359;51.366;-0.222;2023-04-10T01:39:05;3.30;;;3.00;;
75744;SDS011;64359;51.366;-0.222;2023-04-10T01:40:13;3.80;;;3.50;;
75744;SDS011;64359;51.366;-0.222;2023-04-10T01:41:21;2.70;;;2.50;;
75744;SDS011;64359;51.366;-0.222;2023-04-10T01:42:27;3.50;;;3.20;;
75744;SDS011;64359;51.366;-0.222;2023-04-10T01:43:33;3.00;;;2.80;;
75744;SDS011;64359;51.366;-0.222;2023-04-10T01:44:40;3.00;;;2.70;;
75744;SDS011;64359;51.366;-0.222;2023-04-10T01:45:48;2.80;;;2.50;;
75744;SDS011;64359;51.366;-0.222;2023-04-10T01:46:54;3.30;;;3.00;;
75744;SDS011;64359;51.366;-0.222;2023-04-10T01:47:59;3.20;;;2.90;;
75744;SDS011;64359;51.366;-0.222;2023-04-10T01:49:03;3.20;;;2.90;;
75744;SDS011;64359;51.366;-0.222;2023-04-10T01:50:08;3.50;;;3.20;;
75744;SDS011;64359;51.366;-0.222;2023-04-10T01:51:13;3.20;;;2.90;;
75744;SDS011;64359;51.366;-0.222;2023-04-10T01:52:18;3.60;;;3.30;;
75744;SDS011;64359;51.366;-0.222;2023-04-10T01:53:24;3.50;;;2.90;;
75744;SDS011;64359;51.366;-0.222;2023-04-10T01:54:31;3.90;;;3.60;;
75744;SDS011;64359;51.366;-0.222;2023-04-10T01:55:36;3.30;;;3.00;;
75744;SDS011;64359;51.366;-0.222;2023-04-10T01:56:42;3.20;;;2.90;;
75744;SDS011;64359;51.366;-0.222;2023-04-10T01:57:47;3.00;;;2.70;;
75744;SDS011;64359;51.366;-0.222;2023-04-10T01:58:52;3.00;;;2.70;;
75744;SDS011;64359;51.366;-0.222;2023-04-10T01:59:57;3.70;;;3.40;;
75744;SDS011;64359;51.366;-0.222;2023-04-10T02:01:01;2.70;;;2.50;;
75744;SDS011;64359;51.366;-0.222;2023-04-10T02:02:06;3.30;;;2.90;;
75744;SDS011;64359;51.366;-0.222;2023-04-10T02:03:12;3.40;;;3.10;;
75744;SDS011;64359;51.366;-0.222;2023-04-10T02:04:16;3.10;;;2.80;;
75744;SDS011;64359;51.366;-0.222;2023-04-10T02:05:21;3.10;;;2.80;;
75744;SDS011;64359;51.366;-0.222;2023-04-10T02:06:35;3.40;;;3.10;;
75744;SDS011;64359;51.366;-0.222;2023-04-10T02:07:45;3.70;;;3.10;;
75744;SDS011;64359;51.366;-0.222;2023-04-10T02:08:55;2.60;;;2.40;;
75744;SDS011;64359;51.366;-0.222;2023-04-10T02:10:10;3.30;;;3.00;;
75744;SDS011;64359;51.366;-0.222;2023-04-10T02:11:20;3.50;;;3.00;;
75744;SDS011;64359;51.366;-0.222;2023-04-10T02:12:38;2.90;;;2.60;;
75744;SDS011;64359;51.366;-0.222;2023-04-10T02:13:47;3.90;;;3.60;;
75744;SDS011;64359;51.366;-0.222;2023-04-10T02:14:54;3.20;;;3.00;;
75744;SDS011;64359;51.366;-0.222;2023-04-10T02:16:03;2.80;;;2.60;;
75744;SDS011;64359;51.366;-0.222;2023-04-10T02:17:10;4.10;;;3.70;;
75744;SDS011;64359;51.366;-0.222;2023-04-10T02:19:24;2.90;;;2.70;;
75744;SDS011;64359;51.366;-0.222;2023-04-10T02:20:28;3.00;;;2.80;;
75744;SDS011;64359;51.366;-0.222;2023-04-10T02:21:34;3.20;;;2.90;;
75744;SDS011;64359;51.366;-0.222;2023-04-10T02:22:40;3.20;;;2.90;;
75744;SDS011;64359;51.366;-0.222;2023-04-10T02:23:45;3.20;;;2.80;;
75744;SDS011;64359;51.366;-0.222;2023-04-10T02:24:49;3.60;;;3.30;;
75744;SDS011;64359;51.366;-0.222;2023-04-10T02:25:54;3.60;;;3.30;;
75744;SDS011;64359;51.366;-0.222;2023-04-10T02:26:59;3.20;;;2.90;;
75744;SDS011;64359;51.366;-0.222;2023-04-10T02:28:04;3.70;;;3.40;;
75744;SDS011;64359;51.366;-0.222;2023-04-10T02:29:09;3.20;;;2.90;;
75744;SDS011;64359;51.366;-0.222;2023-04-10T02:30:14;3.00;;;2.80;;
75744;SDS011;64359;51.366;-0.222;2023-04-10T02:31:18;3.20;;;3.00;;
75744;SDS011;64359;51.366;-0.222;2023-04-10T02:32:22;3.20;;;2.90;;
75744;SDS011;64359;51.366;-0.222;2023-04-10T02:33:27;3.00;;;2.80;;
75744;SDS011;64359;51.366;-0.222;2023-04-10T02:34:32;3.20;;;2.90;;
75744;SDS011;64359;51.366;-0.222;2023-04-10T02:35:36;3.20;;;2.90;;
75744;SDS011;64359;51.366;-0.222;2023-04-10T02:36:40;3.50;;;3.20;;
75744;SDS011;64359;51.366;-0.222;2023-04-10T02:37:45;4.30;;;4.00;;
75744;SDS011;64359;51.366;-0.222;2023-04-10T02:38:51;4.00;;;3.10;;
75744;SDS011;64359;51.366;-0.222;2023-04-10T02:39:55;3.30;;;3.00;;
75744;SDS011;64359;51.366;-0.222;2023-04-10T02:40:59;3.70;;;3.40;;
75744;SDS011;64359;51.366;-0.222;2023-04-10T02:42:04;3.10;;;2.80;;
75744;SDS011;64359;51.366;-0.222;2023-04-10T02:43:08;3.20;;;3.00;;
75744;SDS011;64359;51.366;-0.222;2023-04-10T02:44:12;3.50;;;3.20;;
75744;SDS011;64359;51.366;-0.222;2023-04-10T02:45:17;4.10;;;3.10;;
75744;SDS011;64359;51.366;-0.222;2023-04-10T02:46:21;3.50;;;3.10;;
75744;SDS011;64359;51.366;-0.222;2023-04-10T02:47:26;3.40;;;2.70;;
75744;SDS011;64359;51.366;-0.222;2023-04-10T02:48:30;3.60;;;3.30;;
75744;SDS011;64359;51.366;-0.222;2023-04-10T02:49:35;3.00;;;2.80;;
75744;SDS011;64359;51.366;-0.222;2023-04-10T02:50:39;2.80;;;2.60;;
75744;SDS011;64359;51.366;-0.222;2023-04-10T02:51:46;3.10;;;2.70;;
75744;SDS011;64359;51.366;-0.222;2023-04-10T02:52:50;3.20;;;2.90;;
75744;SDS011;64359;51.366;-0.222;2023-04-10T02:53:55;3.20;;;2.90;;
75744;SDS011;64359;51.366;-0.222;2023-04-10T02:54:59;3.10;;;2.80;;
75744;SDS011;64359;51.366;-0.222;2023-04-10T02:56:04;3.80;;;3.30;;
75744;SDS011;64359;51.366;-0.222;2023-04-10T02:57:09;3.20;;;2.90;;
75744;SDS011;64359;51.366;-0.222;2023-04-10T02:58:13;4.00;;;2.90;;
75744;SDS011;64359;51.366;-0.222;2023-04-10T02:59:18;2.90;;;2.60;;
75744;SDS011;64359;51.366;-0.222;2023-04-10T03:00:23;3.20;;;2.80;;
75744;SDS011;64359;51.366;-0.222;2023-04-10T03:01:28;3.80;;;3.50;;
75744;SDS011;64359;51.366;-0.222;2023-04-10T03:02:32;3.90;;;3.60;;
75744;SDS011;64359;51.366;-0.222;2023-04-10T03:03:36;2.80;;;2.60;;
75744;SDS011;64359;51.366;-0.222;2023-04-10T03:04:41;3.10;;;2.80;;
75744;SDS011;64359;51.366;-0.222;2023-04-10T03:05:45;3.00;;;2.80;;
75744;SDS011;64359;51.366;-0.222;2023-04-10T03:06:50;3.90;;;3.00;;
75744;SDS011;64359;51.366;-0.222;2023-04-10T03:07:54;3.80;;;3.50;;
75744;SDS011;64359;51.366;-0.222;2023-04-10T03:08:59;3.00;;;2.70;;
75744;SDS011;64359;51.366;-0.222;2023-04-10T03:10:03;3.70;;;3.40;;
75744;SDS011;64359;51.366;-0.222;2023-04-10T03:11:09;3.60;;;3.30;;
75744;SDS011;64359;51.366;-0.222;2023-04-10T03:12:13;4.00;;;3.70;;
75744;SDS011;64359;51.366;-0.222;2023-04-10T03:13:18;3.80;;;3.50;;
75744;SDS011;64359;51.366;-0.222;2023-04-10T03:14:23;3.80;;;3.20;;
75744;SDS011;64359;51.366;-0.222;2023-04-10T03:15:28;2.80;;;2.60;;
75744;SDS011;64359;51.366;-0.222;2023-04-10T03:16:34;3.10;;;2.80;;
75744;SDS011;64359;51.366;-0.222;2023-04-10T03:17:38;3.00;;;2.80;;
75744;SDS011;64359;51.366;-0.222;2023-04-10T03:18:43;3.00;;;2.80;;
75744;SDS011;64359;51.366;-0.222;2023-04-10T03:19:47;3.30;;;3.00;;
75744;SDS011;64359;51.366;-0.222;2023-04-10T03:20:52;2.90;;;2.50;;
75744;SDS011;64359;51.366;-0.222;2023-04-10T03:21:56;3.30;;;3.10;;
75744;SDS011;64359;51.366;-0.222;2023-04-10T03:23:01;3.20;;;2.90;;
75744;SDS011;64359;51.366;-0.222;2023-04-10T03:24:06;2.60;;;2.40;;
75744;SDS011;64359;51.366;-0.222;2023-04-10T03:25:10;3.20;;;2.90;;
75744;SDS011;64359;51.366;-0.222;2023-04-10T03:26:15;3.10;;;2.80;;
75744;SDS011;64359;51.366;-0.222;2023-04-10T03:27:19;3.50;;;3.20;;
75744;SDS011;64359;51.366;-0.222;2023-04-10T03:28:23;2.50;;;2.30;;
75744;SDS011;64359;51.366;-0.222;2023-04-10T03:29:28;2.80;;;2.60;;
75744;SDS011;64359;51.366;-0.222;2023-04-10T03:30:32;2.90;;;2.70;;
75744;SDS011;64359;51.366;-0.222;2023-04-10T03:31:37;3.00;;;2.70;;
75744;SDS011;64359;51.366;-0.222;2023-04-10T03:32:42;2.60;;;2.40;;
75744;SDS011;64359;51.366;-0.222;2023-04-10T03:33:46;2.50;;;2.30;;
75744;SDS011;64359;51.366;-0.222;2023-04-10T03:34:51;2.20;;;2.00;;
75744;SDS011;64359;51.366;-0.222;2023-04-10T03:35:55;2.60;;;2.40;;
75744;SDS011;64359;51.366;-0.222;2023-04-10T03:37:00;2.60;;;2.40;;
75744;SDS011;64359;51.366;-0.222;2023-04-10T03:38:04;2.80;;;2.60;;
75744;SDS011;64359;51.366;-0.222;2023-04-10T03:39:09;3.10;;;2.90;;
75744;SDS011;64359;51.366;-0.222;2023-04-10T03:40:13;3.40;;;3.10;;
75744;SDS011;64359;51.366;-0.222;2023-04-10T03:41:17;3.30;;;3.00;;
75744;SDS011;64359;51.366;-0.222;2023-04-10T03:42:25;2.90;;;2.60;;
75744;SDS011;64359;51.366;-0.222;2023-04-10T03:43:29;2.40;;;2.00;;
75744;SDS011;64359;51.366;-0.222;2023-04-10T03:44:34;2.40;;;2.20;;
75744;SDS011;64359;51.366;-0.222;2023-04-10T03:45:38;2.30;;;2.20;;
75744;SDS011;64359;51.366;-0.222;2023-04-10T03:46:42;2.50;;;2.30;;
75744;SDS011;64359;51.366;-0.222;2023-04-10T03:47:47;2.20;;;2.00;;
75744;SDS011;64359;51.366;-0.222;2023-04-10T03:48:51;2.60;;;2.40;;
75744;SDS011;64359;51.366;-0.222;2023-04-10T03:49:55;2.40;;;2.20;;
75744;SDS011;64359;51.366;-0.222;2023-04-10T03:51:00;2.10;;;2.00;;
75744;SDS011;64359;51.366;-0.222;2023-04-10T03:52:05;2.50;;;2.30;;
75744;SDS011;64359;51.366;-0.222;2023-04-10T03:53:09;3.20;;;2.40;;
75744;SDS011;64359;51.366;-0.222;2023-04-10T03:54:13;2.00;;;1.90;;
75744;SDS011;64359;51.366;-0.222;2023-04-10T03:55:18;2.20;;;2.00;;
75744;SDS011;64359;51.366;-0.222;2023-04-10T03:56:23;2.90;;;2.70;;
75744;SDS011;64359;51.366;-0.222;2023-04-10T03:57:27;2.30;;;2.00;;
75744;SDS011;64359;51.366;-0.222;2023-04-10T03:58:31;2.30;;;2.10;;
75744;SDS011;64359;51.366;-0.222;2023-04-10T03:59:36;2.50;;;2.30;;
75744;SDS011;64359;51.366;-0.222;2023-04-10T04:00:40;2.80;;;2.60;;
75744;SDS011;64359;51.366;-0.222;2023-04-10T04:01:44;2.50;;;2.30;;
75744;SDS011;64359;51.366;-0.222;2023-04-10T04:02:49;2.50;;;2.30;;
75744;SDS011;64359;51.366;-0.222;2023-04-10T04:03:54;3.00;;;2.80;;
75744;SDS011;64359;51.366;-0.222;2023-04-10T04:04:58;2.10;;;2.00;;
75744;SDS011;64359;51.366;-0.222;2023-04-10T04:06:03;3.00;;;2.80;;
75744;SDS011;64359;51.366;-0.222;2023-04-10T04:07:08;2.50;;;2.20;;
75744;SDS011;64359;51.366;-0.222;2023-04-10T04:08:13;2.30;;;2.10;;
75744;SDS011;64359;51.366;-0.222;2023-04-10T04:09:18;2.40;;;2.20;;
75744;SDS011;64359;51.366;-0.222;2023-04-10T04:10:22;2.10;;;2.00;;
75744;SDS011;64359;51.366;-0.222;2023-04-10T04:11:27;2.50;;;2.30;;
75744;SDS011;64359;51.366;-0.222;2023-04-10T04:12:31;1.90;;;1.80;;
75744;SDS011;64359;51.366;-0.222;2023-04-10T04:13:36;2.20;;;2.00;;
75744;SDS011;64359;51.366;-0.222;2023-04-10T04:14:40;2.80;;;2.60;;
75744;SDS011;64359;51.366;-0.222;2023-04-10T04:15:45;2.40;;;2.30;;
75744;SDS011;64359;51.366;-0.222;2023-04-10T04:16:49;2.40;;;2.20;;
75744;SDS011;64359;51.366;-0.222;2023-04-10T04:17:54;3.00;;;2.10;;
75744;SDS011;64359;51.366;-0.222;2023-04-10T04:18:58;2.00;;;1.90;;
75744;SDS011;64359;51.366;-0.222;2023-04-10T04:20:03;2.60;;;2.40;;
75744;SDS011;64359;51.366;-0.222;2023-04-10T04:21:08;2.50;;;2.30;;
75744;SDS011;64359;51.366;-0.222;2023-04-10T04:22:13;2.50;;;2.30;;
75744;SDS011;64359;51.366;-0.222;2023-04-10T04:23:18;2.50;;;2.30;;
75744;SDS011;64359;51.366;-0.222;2023-04-10T04:24:22;2.10;;;1.90;;
75744;SDS011;64359;51.366;-0.222;2023-04-10T04:25:27;2.50;;;2.30;;
75744;SDS011;64359;51.366;-0.222;2023-04-10T04:26:31;2.20;;;2.00;;
75744;SDS011;64359;51.366;-0.222;2023-04-10T04:27:35;1.90;;;1.80;;
75744;SDS011;64359;51.366;-0.222;2023-04-10T04:28:40;2.10;;;2.00;;
75744;SDS011;64359;51.366;-0.222;2023-04-10T04:29:44;1.90;;;1.80;;
75744;SDS011;64359;51.366;-0.222;2023-04-10T04:30:48;2.20;;;2.10;;
75744;SDS011;64359;51.366;-0.222;2023-04-10T04:31:53;2.80;;;2.60;;
75744;SDS011;64359;51.366;-0.222;2023-04-10T04:32:57;2.10;;;1.90;;
75744;SDS011;64359;51.366;-0.222;2023-04-10T04:34:01;2.80;;;2.60;;
75744;SDS011;64359;51.366;-0.222;2023-04-10T04:35:07;2.00;;;1.80;;
75744;SDS011;64359;51.366;-0.222;2023-04-10T04:36:12;2.70;;;2.50;;
75744;SDS011;64359;51.366;-0.222;2023-04-10T04:37:17;2.30;;;1.70;;
75744;SDS011;64359;51.366;-0.222;2023-04-10T04:38:21;1.80;;;1.70;;
75744;SDS011;64359;51.366;-0.222;2023-04-10T04:39:26;1.80;;;1.70;;
75744;SDS011;64359;51.366;-0.222;2023-04-10T04:40:30;3.00;;;2.80;;
75744;SDS011;64359;51.366;-0.222;2023-04-10T04:41:34;2.50;;;2.30;;
75744;SDS011;64359;51.366;-0.222;2023-04-10T04:42:39;1.80;;;1.70;;
75744;SDS011;64359;51.366;-0.222;2023-04-10T04:43:43;2.00;;;1.90;;
75744;SDS011;64359;51.366;-0.222;2023-04-10T04:44:47;2.90;;;2.00;;
75744;SDS011;64359;51.366;-0.222;2023-04-10T04:45:52;1.90;;;1.80;;
75744;SDS011;64359;51.366;-0.222;2023-04-10T04:46:57;2.30;;;2.20;;
75744;SDS011;64359;51.366;-0.222;2023-04-10T04:48:01;2.10;;;1.90;;
75744;SDS011;64359;51.366;-0.222;2023-04-10T04:49:05;2.50;;;1.70;;
75744;SDS011;64359;51.366;-0.222;2023-04-10T04:50:10;2.40;;;2.20;;
75744;SDS011;64359;51.366;-0.222;2023-04-10T04:51:14;2.20;;;2.10;;
75744;SDS011;64359;51.366;-0.222;2023-04-10T04:52:18;1.70;;;1.60;;
75744;SDS011;64359;51.366;-0.222;2023-04-10T04:53:24;2.30;;;2.20;;
75744;SDS011;64359;51.366;-0.222;2023-04-10T04:54:28;1.70;;;1.60;;
75744;SDS011;64359;51.366;-0.222;2023-04-10T04:55:32;2.10;;;2.00;;
75744;SDS011;64359;51.366;-0.222;2023-04-10T04:56:37;2.30;;;2.20;;
75744;SDS011;64359;51.366;-0.222;2023-04-10T04:57:41;1.90;;;1.80;;
75744;SDS011;64359;51.366;-0.222;2023-04-10T04:58:45;2.20;;;2.10;;
75744;SDS011;64359;51.366;-0.222;2023-04-10T04:59:50;1.60;;;1.50;;
75744;SDS011;64359;51.366;-0.222;2023-04-10T05:00:54;1.80;;;1.70;;
75744;SDS011;64359;51.366;-0.222;2023-04-10T05:01:58;1.80;;;1.70;;
75744;SDS011;64359;51.366;-0.222;2023-04-10T05:03:03;1.80;;;1.70;;
75744;SDS011;64359;51.366;-0.222;2023-04-10T05:04:07;2.20;;;2.00;;
75744;SDS011;64359;51.366;-0.222;2023-04-10T05:05:12;1.60;;;1.50;;
75744;SDS011;64359;51.366;-0.222;2023-04-10T05:06:16;2.10;;;2.00;;
75744;SDS011;64359;51.366;-0.222;2023-04-10T05:07:21;1.80;;;1.70;;
75744;SDS011;64359;51.366;-0.222;2023-04-10T05:08:25;1.60;;;1.50;;
75744;SDS011;64359;51.366;-0.222;2023-04-10T05:09:29;2.10;;;1.90;;
75744;SDS011;64359;51.366;-0.222;2023-04-10T05:10:33;1.60;;;1.50;;
75744;SDS011;64359;51.366;-0.222;2023-04-10T05:11:38;1.60;;;1.50;;
75744;SDS011;64359;51.366;-0.222;2023-04-10T05:12:42;1.70;;;1.60;;
75744;SDS011;64359;51.366;-0.222;2023-04-10T05:13:47;1.60;;;1.50;;
75744;SDS011;64359;51.366;-0.222;2023-04-10T05:14:51;2.00;;;1.90;;
75744;SDS011;64359;51.366;-0.222;2023-04-10T05:15:56;2.00;;;1.90;;
75744;SDS011;64359;51.366;-0.222;2023-04-10T05:17:00;2.00;;;1.90;;
75744;SDS011;64359;51.366;-0.222;2023-04-10T05:18:04;1.60;;;1.50;;
75744;SDS011;64359;51.366;-0.222;2023-04-10T05:19:09;1.50;;;1.40;;
75744;SDS011;64359;51.366;-0.222;2023-04-10T05:20:13;1.70;;;1.60;;
75744;SDS011;64359;51.366;-0.222;2023-04-10T05:21:17;1.50;;;1.40;;
75744;SDS011;64359;51.366;-0.222;2023-04-10T05:22:22;2.20;;;2.10;;
75744;SDS011;64359;51.366;-0.222;2023-04-10T05:23:27;2.20;;;2.00;;
75744;SDS011;64359;51.366;-0.222;2023-04-10T05:24:31;1.70;;;1.60;;
75744;SDS011;64359;51.366;-0.222;2023-04-10T05:25:35;1.50;;;1.40;;
75744;SDS011;64359;51.366;-0.222;2023-04-10T05:26:40;1.40;;;1.30;;
75744;SDS011;64359;51.366;-0.222;2023-04-10T05:27:44;1.40;;;1.30;;
75744;SDS011;64359;51.366;-0.222;2023-04-10T05:28:48;2.30;;;2.10;;
75744;SDS011;64359;51.366;-0.222;2023-04-10T05:29:53;1.90;;;1.80;;
75744;SDS011;64359;51.366;-0.222;2023-04-10T05:30:57;1.90;;;1.80;;
75744;SDS011;64359;51.366;-0.222;2023-04-10T05:32:02;1.70;;;1.50;;
75744;SDS011;64359;51.366;-0.222;2023-04-10T05:33:06;1.40;;;1.40;;
75744;SDS011;64359;51.366;-0.222;2023-04-10T05:34:11;1.90;;;1.80;;
75744;SDS011;64359;51.366;-0.222;2023-04-10T05:35:15;2.30;;;1.80;;
75744;SDS011;64359;51.366;-0.222;2023-04-10T05:36:20;1.50;;;1.40;;
75744;SDS011;64359;51.366;-0.222;2023-04-10T05:37:25;1.90;;;1.80;;
75744;SDS011;64359;51.366;-0.222;2023-04-10T05:38:29;1.40;;;1.40;;
75744;SDS011;64359;51.366;-0.222;2023-04-10T05:39:33;1.70;;;1.60;;
75744;SDS011;64359;51.366;-0.222;2023-04-10T05:40:38;1.50;;;1.40;;
75744;SDS011;64359;51.366;-0.222;2023-04-10T05:41:46;1.50;;;1.40;;
75744;SDS011;64359;51.366;-0.222;2023-04-10T05:42:50;1.30;;;1.20;;
75744;SDS011;64359;51.366;-0.222;2023-04-10T05:43:54;1.20;;;1.10;;
75744;SDS011;64359;51.366;-0.222;2023-04-10T05:44:59;1.70;;;1.70;;
75744;SDS011;64359;51.366;-0.222;2023-04-10T05:46:04;1.20;;;1.20;;
75744;SDS011;64359;51.366;-0.222;2023-04-10T05:47:08;1.50;;;1.40;;
75744;SDS011;64359;51.366;-0.222;2023-04-10T05:48:12;1.20;;;1.20;;
75744;SDS011;64359;51.366;-0.222;2023-04-10T05:49:17;1.30;;;1.20;;
75744;SDS011;64359;51.366;-0.222;2023-04-10T05:50:21;1.30;;;1.30;;
75744;SDS011;64359;51.366;-0.222;2023-04-10T05:51:26;1.60;;;1.50;;
75744;SDS011;64359;51.366;-0.222;2023-04-10T05:52:30;1.10;;;1.10;;
75744;SDS011;64359;51.366;-0.222;2023-04-10T05:53:34;1.50;;;1.40;;
75744;SDS011;64359;51.366;-0.222;2023-04-10T05:54:39;1.30;;;1.30;;
75744;SDS011;64359;51.366;-0.222;2023-04-10T05:55:43;1.40;;;1.30;;
75744;SDS011;64359;51.366;-0.222;2023-04-10T05:56:51;1.70;;;1.60;;
75744;SDS011;64359;51.366;-0.222;2023-04-10T05:57:56;1.60;;;1.20;;
75744;SDS011;64359;51.366;-0.222;2023-04-10T05:59:01;1.10;;;1.10;;
75744;SDS011;64359;51.366;-0.222;2023-04-10T06:00:06;1.40;;;1.30;;
75744;SDS011;64359;51.366;-0.222;2023-04-10T06:01:11;1.30;;;1.20;;
75744;SDS011;64359;51.366;-0.222;2023-04-10T06:02:16;1.60;;;1.50;;
75744;SDS011;64359;51.366;-0.222;2023-04-10T06:03:22;1.70;;;1.60;;
75744;SDS011;64359;51.366;-0.222;2023-04-10T06:04:27;1.20;;;1.20;;
75744;SDS011;64359;51.366;-0.222;2023-04-10T06:05:32;1.50;;;1.40;;
75744;SDS011;64359;51.366;-0.222;2023-04-10T06:06:37;1.50;;;1.40;;
75744;SDS011;64359;51.366;-0.222;2023-04-10T06:07:41;1.00;;;1.00;;
75744;SDS011;64359;51.366;-0.222;2023-04-10T06:08:46;1.40;;;1.40;;
75744;SDS011;64359;51.366;-0.222;2023-04-10T06:09:50;1.20;;;1.10;;
75744;SDS011;64359;51.366;-0.222;2023-04-10T06:10:54;1.30;;;1.20;;
75744;SDS011;64359;51.366;-0.222;2023-04-10T06:11:59;1.40;;;1.40;;
75744;SDS011;64359;51.366;-0.222;2023-04-10T06:13:03;1.50;;;1.20;;
75744;SDS011;64359;51.366;-0.222;2023-04-10T06:14:08;1.40;;;1.30;;
75744;SDS011;64359;51.366;-0.222;2023-04-10T06:15:12;1.30;;;1.20;;
75744;SDS011;64359;51.366;-0.222;2023-04-10T06:16:16;1.50;;;1.50;;
75744;SDS011;64359;51.366;-0.222;2023-04-10T06:17:21;1.20;;;1.20;;
75744;SDS011;64359;51.366;-0.222;2023-04-10T06:18:28;1.20;;;1.10;;
75744;SDS011;64359;51.366;-0.222;2023-04-10T06:19:32;1.60;;;1.50;;
75744;SDS011;64359;51.366;-0.222;2023-04-10T06:20:37;1.70;;;1.60;;
75744;SDS011;64359;51.366;-0.222;2023-04-10T06:21:41;4.10;;;1.30;;
75744;SDS011;64359;51.366;-0.222;2023-04-10T06:22:46;1.70;;;1.60;;
75744;SDS011;64359;51.366;-0.222;2023-04-10T06:23:50;2.70;;;1.00;;
75744;SDS011;64359;51.366;-0.222;2023-04-10T06:24:54;1.60;;;1.50;;
75744;SDS011;64359;51.366;-0.222;2023-04-10T06:25:59;1.20;;;1.10;;
75744;SDS011;64359;51.366;-0.222;2023-04-10T06:27:04;1.30;;;1.20;;
75744;SDS011;64359;51.366;-0.222;2023-04-10T06:28:08;1.60;;;1.50;;
75744;SDS011;64359;51.366;-0.222;2023-04-10T06:29:13;1.20;;;1.20;;